Time;durP1;ratioP1;P1;durP2;ratioP2;P2;SDS_P1;SDS_P2;PMS_P1;PMS_P2;Temp;Humidity;BMP_temperature;BMP_pressure;BME280_temperature;BME280_humidity;BME280_pressure;Samples;Min_cycle;Max_cycle;Signal;HPM_P1;HPM_P2
2023/02/01 09:59:54;;;;;;;5.87;1.10;;;7.30;99.90;;;;;;4280913;26;20228;-75
2023/02/01 10:02:24;;;;;;;9.83;1.30;;;7.40;99.90;;;;;;4935386;29;20209;-72
2023/02/01 10:04:54;;;;;;;9.87;1.47;;;7.50;99.90;;;;;;4933137;29;20229;-73
2023/02/01 10:07:31;;;;;;;9.27;1.37;;;7.50;99.90;;;;;;4935657;29;20212;-72
2023/02/01 10:10:02;;;;;;;7.40;1.77;;;7.60;99.90;;;;;;4934758;29;20683;-74
2023/02/01 10:13:01;;;;;;;2.90;1.03;;;7.70;99.90;;;;;;4934844;29;20220;-73
2023/02/01 10:15:41;;;;;;;6.37;1.13;;;7.70;99.90;;;;;;4934106;29;20707;-73
2023/02/01 10:18:28;;;;;;;10.30;1.43;;;7.90;99.90;;;;;;4934415;29;20205;-71
2023/02/01 10:21:02;;;;;;;6.30;1.27;;;7.70;99.90;;;;;;4935879;29;20205;-73
2023/02/01 10:23:44;;;;;;;5.17;1.00;;;7.70;99.90;;;;;;4936561;29;20213;-73
2023/02/01 10:26:18;;;;;;;9.07;1.07;;;7.70;99.90;;;;;;4936173;29;20255;-73
2023/02/01 10:28:49;;;;;;;6.83;1.20;;;7.80;99.90;;;;;;4936233;29;20211;-73
2023/02/01 10:31:18;;;;;;;7.67;1.23;;;7.80;99.90;;;;;;4936446;29;20327;-74
2023/02/01 10:33:47;;;;;;;10.13;1.40;;;7.90;99.90;;;;;;4936336;29;20209;-73
2023/02/01 10:36:19;;;;;;;4.77;1.20;;;8.00;99.90;;;;;;4936077;29;20235;-74
2023/02/01 10:38:46;;;;;;;6.13;1.37;;;8.00;99.90;;;;;;4936101;29;20276;-74
2023/02/01 10:41:16;;;;;;;10.43;1.40;;;8.00;99.90;;;;;;4935863;29;20576;-73
2023/02/01 10:43:44;;;;;;;6.77;1.37;;;8.20;99.90;;;;;;4936097;29;20209;-73
2023/02/01 10:46:11;;;;;;;6.93;1.53;;;8.20;99.90;;;;;;4936070;29;20708;-73
2023/02/01 10:48:40;;;;;;;2.57;0.90;;;8.30;99.90;;;;;;4936024;29;20299;-74
2023/02/01 10:51:12;;;;;;;5.70;1.30;;;8.40;99.90;;;;;;4937983;29;20711;-74
2023/02/01 10:53:43;;;;;;;5.77;1.03;;;8.50;99.90;;;;;;4936847;29;20215;-73
2023/02/01 10:56:11;;;;;;;7.80;1.20;;;8.60;99.90;;;;;;4935651;29;20221;-74
2023/02/01 10:58:45;;;;;;;5.90;0.93;;;8.50;99.90;;;;;;4935430;29;20216;-73
2023/02/01 11:01:18;;;;;;;8.33;0.87;;;8.50;99.90;;;;;;4935776;29;20201;-72
2023/02/01 11:03:54;;;;;;;10.20;1.50;;;8.60;99.90;;;;;;4935919;29;20212;-72
2023/02/01 11:06:27;;;;;;;5.97;1.03;;;8.70;99.90;;;;;;4935615;29;20232;-72
2023/02/01 11:08:56;;;;;;;2.70;0.60;;;8.80;99.90;;;;;;4936015;29;20213;-74
2023/02/01 11:11:23;;;;;;;10.27;1.30;;;9.00;99.90;;;;;;4936683;29;20240;-74
2023/02/01 11:13:56;;;;;;;8.27;0.90;;;9.00;99.90;;;;;;4935604;29;20215;-73
2023/02/01 11:16:30;;;;;;;5.50;0.97;;;9.10;99.90;;;;;;4935648;29;20208;-73
2023/02/01 11:18:59;;;;;;;5.77;0.90;;;9.30;99.90;;;;;;4936581;29;20208;-73
2023/02/01 11:21:27;;;;;;;5.07;1.10;;;9.40;99.90;;;;;;4936100;29;20209;-73
2023/02/01 11:23:54;;;;;;;4.13;1.00;;;9.60;99.90;;;;;;4936161;29;20628;-76
2023/02/01 11:26:24;;;;;;;6.23;1.00;;;9.70;99.90;;;;;;4935783;29;20316;-75
2023/02/01 11:28:55;;;;;;;4.13;0.70;;;9.90;99.90;;;;;;4935502;29;20216;-76
2023/02/01 11:31:24;;;;;;;4.90;0.97;;;9.90;99.90;;;;;;4938656;29;20261;-76
2023/02/01 11:33:54;;;;;;;6.07;0.90;;;9.90;99.90;;;;;;4939662;29;20212;-76
2023/02/01 11:36:27;;;;;;;10.63;1.27;;;9.70;99.90;;;;;;4939335;29;20232;-76
2023/02/01 11:39:09;;;;;;;9.57;0.90;;;9.70;99.90;;;;;;4939189;29;20264;-76
2023/02/01 11:41:42;;;;;;;6.00;0.90;;;9.60;99.90;;;;;;4939096;29;20639;-74
2023/02/01 11:44:21;;;;;;;7.17;1.10;;;9.40;99.90;;;;;;4939056;29;20237;-74
2023/02/01 11:46:48;;;;;;;2.50;0.70;;;9.30;99.90;;;;;;4939215;29;20218;-75
2023/02/01 11:49:22;;;;;;;3.30;0.97;;;9.30;99.90;;;;;;4939008;29;20650;-74
2023/02/01 11:52:04;;;;;;;4.50;1.73;;;9.30;99.90;;;;;;4938856;29;20240;-76
2023/02/01 11:54:52;;;;;;;4.33;0.73;;;9.30;99.90;;;;;;4935327;29;20596;-74
2023/02/01 11:57:30;;;;;;;4.83;0.80;;;9.40;99.90;;;;;;4926319;29;20214;-75
2023/02/01 12:00:12;;;;;;;6.87;1.10;;;9.50;99.90;;;;;;4922934;29;20227;-74
2023/02/01 12:03:02;;;;;;;5.80;0.73;;;9.60;99.90;;;;;;4937478;29;20300;-75
2023/02/01 12:05:35;;;;;;;6.47;1.13;;;9.90;99.90;;;;;;4922712;29;20233;-75
2023/02/01 12:08:29;;;;;;;2.83;0.80;;;10.00;99.90;;;;;;4928520;29;20205;-76
2023/02/01 12:11:18;;;;;;;5.50;1.03;;;10.10;99.90;;;;;;4935427;29;20592;-76
2023/02/01 12:13:54;;;;;;;4.37;0.73;;;10.10;99.90;;;;;;4934161;29;20216;-76
2023/02/01 12:16:33;;;;;;;6.27;0.80;;;10.00;99.90;;;;;;4928635;29;20237;-76
2023/02/01 12:19:21;;;;;;;1.57;0.70;;;10.00;99.90;;;;;;4937962;29;20299;-76
2023/02/01 12:22:00;;;;;;;3.20;0.93;;;9.80;99.90;;;;;;4937987;29;20209;-76
2023/02/01 12:24:57;;;;;;;3.07;0.70;;;9.80;99.90;;;;;;4937372;29;20762;-76
2023/02/01 12:27:51;;;;;;;3.90;0.73;;;10.00;99.90;;;;;;4937785;29;20213;-74
2023/02/01 12:30:44;;;;;;;8.07;0.77;;;10.20;99.90;;;;;;4937326;29;20208;-76
2023/02/01 12:33:18;;;;;;;1.73;0.60;;;10.40;99.90;;;;;;4934221;29;20243;-75
2023/02/01 12:35:59;;;;;;;3.67;0.80;;;10.60;99.90;;;;;;4927176;29;20228;-76
2023/02/01 12:38:43;;;;;;;4.47;0.63;;;10.70;99.90;;;;;;4929954;29;20234;-75
2023/02/01 12:41:36;;;;;;;3.37;0.70;;;10.60;99.90;;;;;;4928379;29;20213;-76
2023/02/01 12:44:06;;;;;;;4.03;1.10;;;10.60;99.90;;;;;;4927092;29;20213;-75
2023/02/01 12:46:38;;;;;;;2.43;1.00;;;10.80;99.90;;;;;;4933991;29;20236;-76
2023/02/01 12:49:11;;;;;;;2.10;0.50;;;11.00;99.90;;;;;;4931033;29;20212;-77
2023/02/01 12:51:40;;;;;;;6.20;0.60;;;11.10;99.90;;;;;;4933102;29;20228;-76
2023/02/01 12:54:17;;;;;;;10.10;1.17;;;11.30;99.90;;;;;;4930021;29;20656;-76
2023/02/01 12:56:48;;;;;;;3.73;0.53;;;11.30;99.90;;;;;;4927487;29;20655;-76
2023/02/01 12:59:23;;;;;;;3.50;0.80;;;11.40;99.90;;;;;;4927242;29;20654;-75
2023/02/01 13:01:58;;;;;;;2.37;0.50;;;11.40;99.90;;;;;;4925288;29;20208;-76
2023/02/01 13:04:30;;;;;;;2.73;0.60;;;11.30;99.90;;;;;;4925105;29;20648;-77
2023/02/01 13:07:05;;;;;;;1.77;0.50;;;11.20;99.90;;;;;;4934905;29;20209;-75
2023/02/01 13:09:37;;;;;;;2.33;0.50;;;11.20;99.90;;;;;;4931127;29;20208;-76
2023/02/01 13:12:13;;;;;;;3.23;0.80;;;11.30;99.90;;;;;;4932040;29;20613;-76
2023/02/01 13:14:46;;;;;;;2.97;0.73;;;11.30;99.90;;;;;;4936024;29;20229;-76
2023/02/01 13:17:17;;;;;;;4.03;0.47;;;11.40;99.90;;;;;;4929140;29;20216;-76
2023/02/01 13:19:50;;;;;;;2.57;0.73;;;11.60;99.90;;;;;;4932460;29;20268;-77
2023/02/01 13:22:20;;;;;;;5.50;0.63;;;11.80;99.90;;;;;;4926028;29;20660;-76
2023/02/01 13:24:51;;;;;;;3.93;0.87;;;11.90;99.90;;;;;;4921439;29;20224;-76
2023/02/01 13:27:20;;;;;;;4.27;0.60;;;11.90;99.90;;;;;;4933919;29;20215;-76
2023/02/01 13:29:56;;;;;;;7.70;1.53;;;11.80;99.90;;;;;;4928617;29;20285;-74
2023/02/01 13:32:48;;;;;;;8.97;1.10;;;11.60;99.90;;;;;;4926345;29;20233;-75
2023/02/01 13:35:33;;;;;;;1.00;0.40;;;11.40;99.90;;;;;;4900287;29;20316;-75
2023/02/01 13:38:24;;;;;;;2.67;0.57;;;11.50;99.90;;;;;;4931429;29;20232;-77
2023/02/01 13:41:06;;;;;;;2.83;0.60;;;11.70;99.90;;;;;;4928096;29;20209;-76
2023/02/01 13:43:35;;;;;;;2.70;0.50;;;11.40;99.90;;;;;;4932159;29;20208;-76
2023/02/01 13:46:07;;;;;;;1.13;0.50;;;11.30;99.90;;;;;;4929153;29;20260;-77
2023/02/01 13:48:40;;;;;;;4.87;0.50;;;11.30;99.90;;;;;;4929168;29;20206;-77
2023/02/01 13:51:08;;;;;;;6.83;0.70;;;11.40;99.90;;;;;;4932898;29;20205;-77
2023/02/01 13:53:37;;;;;;;4.73;0.70;;;11.40;99.90;;;;;;4927892;29;20592;-76
2023/02/01 13:56:09;;;;;;;3.60;0.80;;;11.50;99.90;;;;;;4928423;29;20238;-76
2023/02/01 13:58:39;;;;;;;3.57;0.37;;;11.50;99.90;;;;;;4922495;29;20216;-75
2023/02/01 14:01:35;;;;;;;8.93;0.80;;;11.50;99.90;;;;;;4933318;29;20216;-76
2023/02/01 14:04:04;;;;;;;4.43;0.53;;;11.60;99.90;;;;;;4931041;29;20214;-75
2023/02/01 14:06:43;;;;;;;4.23;1.00;;;11.70;99.90;;;;;;4930914;29;20212;-74
2023/02/01 14:09:36;;;;;;;3.50;0.50;;;11.70;99.90;;;;;;4922620;29;20289;-71
2023/02/01 14:12:44;;;;;;;2.73;0.93;;;11.20;99.90;;;;;;4915559;29;20241;-72
2023/02/01 14:15:25;;;;;;;5.80;1.30;;;11.20;99.90;;;;;;4932283;29;20228;-74
2023/02/01 14:17:51;;;;;;;2.70;0.50;;;10.90;99.90;;;;;;4929539;29;20204;-73
2023/02/01 14:20:48;;;;;;;4.93;0.40;;;10.90;99.90;;;;;;4928208;29;20209;-73
2023/02/01 14:23:24;;;;;;;5.17;0.70;;;10.90;99.90;;;;;;4919739;29;20292;-74
2023/02/01 14:26:20;;;;;;;4.67;0.50;;;10.80;99.90;;;;;;4932284;29;20224;-77
2023/02/01 14:28:52;;;;;;;1.67;0.50;;;10.60;99.90;;;;;;4929964;29;20256;-76
2023/02/01 14:31:41;;;;;;;5.00;0.60;;;10.70;99.90;;;;;;4931862;29;20209;-75
2023/02/01 14:34:18;;;;;;;4.53;1.00;;;10.60;99.90;;;;;;4930542;29;20209;-74
2023/02/01 14:36:57;;;;;;;3.93;0.80;;;10.70;99.90;;;;;;4928658;29;20259;-77
2023/02/01 14:39:40;;;;;;;3.57;0.70;;;10.80;99.90;;;;;;4924246;29;20566;-76
2023/02/01 14:42:26;;;;;;;3.03;0.43;;;10.70;99.90;;;;;;4924926;29;20209;-74
2023/02/01 14:44:54;;;;;;;6.17;1.27;;;10.70;99.90;;;;;;4926842;29;20226;-72
2023/02/01 14:47:33;;;;;;;10.03;1.40;;;10.60;99.90;;;;;;4930315;29;20208;-71
2023/02/01 14:50:27;;;;;;;4.47;0.60;;;10.50;99.90;;;;;;4927358;29;20239;-74
2023/02/01 14:53:18;;;;;;;3.47;0.67;;;10.40;99.90;;;;;;4928059;29;20237;-71
2023/02/01 14:55:48;;;;;;;10.50;1.30;;;10.50;99.90;;;;;;4928223;29;20260;-72
2023/02/01 14:58:20;;;;;;;3.80;0.80;;;10.40;99.90;;;;;;4929599;29;20220;-72
2023/02/01 15:00:52;;;;;;;4.07;0.60;;;10.40;99.90;;;;;;4928769;29;20205;-70
2023/02/01 15:03:41;;;;;;;5.77;0.70;;;10.40;99.90;;;;;;4930190;29;20205;-70
2023/02/01 15:06:21;;;;;;;3.63;0.70;;;10.50;99.90;;;;;;4928932;29;20225;-71
2023/02/01 15:08:48;;;;;;;4.97;0.90;;;10.60;99.90;;;;;;4923893;29;20210;-71
2023/02/01 15:11:16;;;;;;;3.37;0.80;;;10.60;99.90;;;;;;4925484;29;20213;-72
2023/02/01 15:13:49;;;;;;;4.40;0.87;;;10.50;99.90;;;;;;4930089;29;20236;-71
2023/02/01 15:16:18;;;;;;;6.43;0.77;;;10.60;99.90;;;;;;4926622;29;20570;-72
2023/02/01 15:18:46;;;;;;;5.43;0.93;;;10.40;99.90;;;;;;4930459;29;20201;-72
2023/02/01 15:21:18;;;;;;;6.27;0.87;;;10.40;99.90;;;;;;4929598;29;20208;-72
2023/02/01 15:23:48;;;;;;;5.33;1.37;;;10.30;99.90;;;;;;4930114;29;20212;-72
2023/02/01 15:26:26;;;;;;;7.80;0.73;;;10.20;99.90;;;;;;4932429;29;20213;-71
2023/02/01 15:28:52;;;;;;;1.70;0.60;;;10.10;99.90;;;;;;4926283;29;20212;-72
2023/02/01 15:31:33;;;;;;;3.73;0.80;;;10.10;99.90;;;;;;4931968;29;20201;-73
2023/02/01 15:34:01;;;;;;;5.80;0.87;;;10.10;99.90;;;;;;4923536;29;20333;-72
2023/02/01 15:36:28;;;;;;;5.53;0.57;;;9.90;99.90;;;;;;4930316;29;20672;-73
2023/02/01 15:39:29;;;;;;;8.10;1.00;;;9.90;99.90;;;;;;4924156;29;20265;-72
2023/02/01 15:42:00;;;;;;;6.77;0.80;;;9.90;99.90;;;;;;4918331;29;20215;-73
2023/02/01 15:44:40;;;;;;;10.20;1.13;;;9.80;99.90;;;;;;4933843;29;20283;-73
2023/02/01 15:47:14;;;;;;;2.57;0.60;;;9.80;99.90;;;;;;4932738;29;20209;-73
2023/02/01 15:49:45;;;;;;;4.77;0.77;;;9.80;99.90;;;;;;4934487;29;20207;-74
2023/02/01 15:52:24;;;;;;;5.70;0.60;;;9.70;99.90;;;;;;4934071;29;20247;-74
2023/02/01 15:54:54;;;;;;;7.87;1.00;;;9.80;99.90;;;;;;4950931;23;20232;-74
2023/02/01 15:57:30;;;;;;;4.17;0.70;;;9.80;99.90;;;;;;4954334;29;20212;-74
2023/02/01 15:59:58;;;;;;;4.23;1.23;;;9.70;99.90;;;;;;4954351;29;20610;-73
2023/02/01 16:02:34;;;;;;;5.07;1.07;;;9.70;99.90;;;;;;4953361;29;20671;-73
2023/02/01 16:05:03;;;;;;;4.57;1.13;;;9.80;99.90;;;;;;4954528;29;20259;-74
2023/02/01 16:07:31;;;;;;;4.13;1.00;;;9.90;99.90;;;;;;4955170;29;20212;-74
2023/02/01 16:10:00;;;;;;;8.40;0.90;;;9.80;99.90;;;;;;4955920;29;20208;-74
2023/02/01 16:12:35;;;;;;;8.37;0.87;;;9.80;99.90;;;;;;4954218;29;20730;-73
2023/02/01 16:15:02;;;;;;;8.47;1.37;;;9.70;99.90;;;;;;4954231;29;20223;-73
2023/02/01 16:17:29;;;;;;;6.47;1.03;;;9.70;99.90;;;;;;4957158;28;20212;-73
2023/02/01 16:19:57;;;;;;;7.00;1.00;;;9.70;99.90;;;;;;4957739;29;20208;-73
2023/02/01 16:22:25;;;;;;;4.90;1.20;;;9.70;99.90;;;;;;4957825;29;20222;-73
2023/02/01 16:24:52;;;;;;;7.33;1.20;;;9.70;99.90;;;;;;4957741;29;20750;-74
2023/02/01 16:27:20;;;;;;;8.83;1.30;;;9.60;99.90;;;;;;4957866;29;20220;-74
2023/02/01 16:29:48;;;;;;;10.17;1.50;;;9.70;99.90;;;;;;4957742;29;20204;-74
2023/02/01 16:32:19;;;;;;;6.33;1.27;;;9.70;99.90;;;;;;4957111;28;20675;-73
2023/02/01 16:34:46;;;;;;;2.70;0.80;;;9.70;99.90;;;;;;4957334;29;20224;-74
2023/02/01 16:37:15;;;;;;;8.07;0.90;;;9.60;99.90;;;;;;4957355;29;20208;-73
2023/02/01 16:39:43;;;;;;;2.83;0.70;;;9.60;99.90;;;;;;4958381;29;20208;-74
2023/02/01 16:42:12;;;;;;;4.03;0.90;;;9.60;99.90;;;;;;4957586;29;20574;-72
2023/02/01 16:44:39;;;;;;;5.40;1.00;;;9.70;99.90;;;;;;4957369;29;20227;-72
2023/02/01 16:47:12;;;;;;;7.70;1.13;;;9.70;99.90;;;;;;4957365;29;20212;-73
2023/02/01 16:49:41;;;;;;;3.87;0.97;;;9.80;99.90;;;;;;4957088;29;20212;-73
2023/02/01 16:52:14;;;;;;;9.93;1.40;;;9.80;99.90;;;;;;4957389;28;20211;-72
2023/02/01 16:54:42;;;;;;;5.93;1.10;;;9.70;99.90;;;;;;4957167;29;20247;-73
2023/02/01 16:57:13;;;;;;;5.27;1.10;;;9.70;99.90;;;;;;4957277;28;20219;-73
2023/02/01 16:59:40;;;;;;;8.27;1.00;;;9.50;99.90;;;;;;4956891;29;20727;-72
2023/02/01 17:02:10;;;;;;;7.80;1.00;;;9.40;99.90;;;;;;4957012;29;20211;-73
2023/02/01 17:04:37;;;;;;;8.33;1.13;;;9.40;99.90;;;;;;4956677;29;20228;-73
2023/02/01 17:07:08;;;;;;;8.23;1.43;;;9.40;99.90;;;;;;4957082;29;20315;-73
2023/02/01 17:09:35;;;;;;;7.83;1.33;;;9.40;99.90;;;;;;4956830;29;20215;-73
2023/02/01 17:12:04;;;;;;;10.57;1.00;;;9.40;99.90;;;;;;4956783;29;20208;-73
2023/02/01 17:14:32;;;;;;;8.23;1.13;;;9.30;99.90;;;;;;4956346;29;20243;-73
2023/02/01 17:16:58;;;;;;;5.47;1.03;;;9.30;99.90;;;;;;4956692;29;20222;-73
2023/02/01 17:19:25;;;;;;;7.47;1.20;;;9.30;99.90;;;;;;4957106;29;20576;-73
2023/02/01 17:21:55;;;;;;;9.13;1.10;;;9.20;99.90;;;;;;4956712;29;20214;-72
2023/02/01 17:24:28;;;;;;;6.50;0.90;;;9.10;99.90;;;;;;4956318;29;20311;-73
2023/02/01 17:26:55;;;;;;;3.60;1.07;;;9.10;99.90;;;;;;4956496;29;20230;-73
2023/02/01 17:29:23;;;;;;;3.60;0.93;;;9.20;99.90;;;;;;4955527;28;20216;-73
2023/02/01 17:31:54;;;;;;;3.97;0.80;;;9.20;99.90;;;;;;4956713;29;20567;-72
2023/02/01 17:34:21;;;;;;;11.53;1.23;;;9.30;99.90;;;;;;4956349;29;20654;-73
2023/02/01 17:36:49;;;;;;;8.00;1.30;;;9.40;99.90;;;;;;4956268;29;20219;-72
2023/02/01 17:41:57;;;;;;;9.87;1.40;;;9.30;99.90;;;;;;4955925;29;20204;-72
2023/02/01 17:44:25;;;;;;;6.87;1.10;;;9.30;99.90;;;;;;4956204;29;20239;-72
2023/02/01 17:46:52;;;;;;;8.53;1.17;;;9.20;99.90;;;;;;4955901;29;20219;-73
2023/02/01 17:49:19;;;;;;;6.87;1.10;;;9.10;99.90;;;;;;4956144;29;20218;-73
2023/02/01 17:51:46;;;;;;;6.20;1.10;;;9.20;99.90;;;;;;4956131;29;20211;-73
2023/02/01 17:54:13;;;;;;;8.17;1.83;;;9.10;99.90;;;;;;4955807;29;20242;-72
2023/02/01 17:56:40;;;;;;;10.67;1.53;;;9.00;99.90;;;;;;4955794;29;20217;-73
2023/02/01 17:59:07;;;;;;;6.67;1.23;;;9.00;99.90;;;;;;4955696;29;20660;-73
2023/02/01 18:01:35;;;;;;;9.67;1.63;;;9.00;99.90;;;;;;4955918;29;20204;-73
2023/02/01 18:04:02;;;;;;;5.77;1.47;;;9.00;99.90;;;;;;4955764;28;20208;-73
2023/02/01 18:06:36;;;;;;;5.40;1.10;;;9.00;99.90;;;;;;4956035;29;20236;-73
2023/02/01 18:09:03;;;;;;;9.43;1.33;;;9.00;99.90;;;;;;4955599;29;20235;-73
2023/02/01 18:11:32;;;;;;;3.43;0.80;;;9.00;99.90;;;;;;4955720;29;20208;-73
2023/02/01 18:13:59;;;;;;;6.50;1.40;;;9.00;99.90;;;;;;4955546;29;20338;-73
2023/02/01 18:16:28;;;;;;;5.10;1.03;;;8.90;99.90;;;;;;4955531;29;20208;-73
2023/02/01 18:19:00;;;;;;;4.37;1.60;;;8.90;99.90;;;;;;4955582;29;20686;-73
2023/02/01 18:21:33;;;;;;;5.73;1.50;;;9.00;99.90;;;;;;4955458;29;20679;-73
2023/02/01 18:24:00;;;;;;;6.50;1.77;;;9.10;99.90;;;;;;4955501;29;20247;-73
2023/02/01 18:26:27;;;;;;;4.07;0.90;;;9.00;99.90;;;;;;4955485;29;20204;-73
2023/02/01 18:28:54;;;;;;;7.33;1.23;;;9.10;99.90;;;;;;4955395;29;20214;-73
2023/02/01 18:31:24;;;;;;;9.87;1.40;;;9.00;99.90;;;;;;4955449;29;20579;-73
2023/02/01 18:33:52;;;;;;;9.60;1.20;;;9.00;99.90;;;;;;4955181;29;20240;-73
2023/02/01 18:36:20;;;;;;;14.00;1.77;;;9.10;99.90;;;;;;4955170;29;20232;-73
2023/02/01 18:38:47;;;;;;;9.07;1.60;;;9.00;99.90;;;;;;4955010;28;20215;-73
2023/02/01 18:41:15;;;;;;;7.30;1.33;;;9.00;99.90;;;;;;4954685;29;20293;-73
2023/02/01 18:43:43;;;;;;;11.53;1.47;;;9.00;99.90;;;;;;4955290;29;20575;-73
2023/02/01 18:46:10;;;;;;;9.53;1.70;;;8.90;99.90;;;;;;4955295;29;20228;-73
2023/02/01 18:48:37;;;;;;;11.70;1.40;;;8.90;99.90;;;;;;4955373;29;20216;-73
2023/02/01 18:51:05;;;;;;;9.07;1.40;;;8.90;99.90;;;;;;4955218;28;20208;-73
2023/02/01 18:53:33;;;;;;;8.07;1.43;;;8.80;99.90;;;;;;4955440;29;20240;-74
2023/02/01 18:56:01;;;;;;;7.57;1.67;;;8.80;99.90;;;;;;4955485;29;20588;-74
2023/02/01 18:58:28;;;;;;;5.60;1.07;;;8.80;99.90;;;;;;4955092;28;20730;-73
2023/02/01 19:00:56;;;;;;;7.13;1.40;;;8.90;99.90;;;;;;4955000;29;20212;-73
2023/02/01 19:03:25;;;;;;;12.60;1.70;;;8.90;99.90;;;;;;4954837;29;20218;-73
2023/02/01 19:05:54;;;;;;;6.00;1.70;;;8.80;99.90;;;;;;4954837;29;20318;-72
2023/02/01 19:08:23;;;;;;;8.87;1.33;;;8.80;99.90;;;;;;4954842;28;20214;-73
2023/02/01 19:10:51;;;;;;;5.57;1.43;;;8.90;99.90;;;;;;4954817;29;20535;-72
2023/02/01 19:13:20;;;;;;;5.93;1.60;;;8.80;99.90;;;;;;4955038;28;20235;-72
2023/02/01 19:15:47;;;;;;;12.07;1.77;;;8.80;99.90;;;;;;4954917;29;20259;-73
2023/02/01 19:18:18;;;;;;;4.43;1.20;;;8.70;99.90;;;;;;4955172;29;20218;-73
2023/02/01 19:20:46;;;;;;;6.17;1.13;;;8.70;99.90;;;;;;4954932;29;20303;-73
2023/02/01 19:23:13;;;;;;;6.20;1.80;;;8.70;99.90;;;;;;4954961;28;20230;-73
2023/02/01 19:25:44;;;;;;;9.50;1.60;;;8.80;99.90;;;;;;4954699;29;20228;-72
2023/02/01 19:28:12;;;;;;;4.63;1.20;;;8.80;99.90;;;;;;4954844;28;20227;-73
2023/02/01 19:30:39;;;;;;;3.97;1.17;;;8.90;99.90;;;;;;4954769;29;20208;-73
2023/02/01 19:33:05;;;;;;;13.80;1.67;;;8.80;99.90;;;;;;4954500;29;20659;-73
2023/02/01 19:35:32;;;;;;;10.90;2.07;;;8.80;99.90;;;;;;4954776;29;20586;-73
2023/02/01 19:37:59;;;;;;;6.80;1.30;;;8.80;99.90;;;;;;4954731;29;20656;-73
2023/02/01 19:40:26;;;;;;;8.43;1.60;;;8.90;99.90;;;;;;4954583;29;20204;-73
2023/02/01 19:42:54;;;;;;;12.13;1.70;;;8.90;99.90;;;;;;4954530;29;20215;-74
2023/02/01 19:45:22;;;;;;;5.40;1.30;;;8.90;99.90;;;;;;4954394;28;20234;-75
2023/02/01 19:47:49;;;;;;;12.27;2.30;;;8.90;99.90;;;;;;4954905;29;20205;-74
2023/02/01 19:50:18;;;;;;;6.83;1.53;;;8.90;99.90;;;;;;4954519;28;20212;-75
2023/02/01 19:52:45;;;;;;;10.90;1.80;;;8.80;99.90;;;;;;4957899;29;20307;-74
2023/02/01 19:55:13;;;;;;;4.40;1.03;;;8.80;99.90;;;;;;4957672;29;20246;-74
2023/02/01 19:57:42;;;;;;;6.20;1.40;;;8.70;99.90;;;;;;4958255;29;20575;-74
2023/02/01 20:00:11;;;;;;;16.80;2.00;;;8.70;99.90;;;;;;4958169;29;20208;-75
2023/02/01 20:02:39;;;;;;;8.70;1.83;;;8.70;99.90;;;;;;4957834;29;20212;-74
2023/02/01 20:05:10;;;;;;;6.97;1.50;;;8.60;99.90;;;;;;4957396;29;20710;-74
2023/02/01 20:07:37;;;;;;;6.50;1.60;;;8.60;99.90;;;;;;4957750;29;20570;-74
2023/02/01 20:10:04;;;;;;;11.90;2.00;;;8.70;99.90;;;;;;4957797;29;20686;-74
2023/02/01 20:12:31;;;;;;;8.23;1.60;;;8.70;99.90;;;;;;4957558;29;20211;-75
2023/02/01 20:14:58;;;;;;;6.53;1.83;;;8.70;99.90;;;;;;4957304;29;20539;-75
2023/02/01 20:17:25;;;;;;;7.70;1.87;;;8.70;99.90;;;;;;4957722;28;20641;-74
2023/02/01 20:19:53;;;;;;;6.47;1.77;;;8.80;99.90;;;;;;4957616;29;20216;-74
2023/02/01 20:22:20;;;;;;;13.07;1.60;;;8.80;99.90;;;;;;4957522;29;20689;-74
2023/02/01 20:24:47;;;;;;;17.13;2.20;;;8.70;99.90;;;;;;4957558;29;20234;-74
2023/02/01 20:27:14;;;;;;;5.80;1.57;;;8.70;99.90;;;;;;4957814;29;20611;-74
2023/02/01 20:29:40;;;;;;;9.33;2.47;;;8.70;99.90;;;;;;4957295;29;20574;-74
2023/02/01 20:32:08;;;;;;;8.23;1.97;;;8.80;99.90;;;;;;4957528;29;20238;-74
2023/02/01 20:34:35;;;;;;;5.77;1.40;;;8.80;99.90;;;;;;4957429;29;20236;-74
2023/02/01 20:37:03;;;;;;;11.47;1.77;;;8.80;99.90;;;;;;4957288;29;20208;-75
2023/02/01 20:39:30;;;;;;;9.10;1.87;;;8.80;99.90;;;;;;4957394;29;20211;-75
2023/02/01 20:41:56;;;;;;;10.23;1.90;;;8.90;99.90;;;;;;4957272;29;20570;-74
2023/02/01 20:44:23;;;;;;;7.83;1.47;;;8.90;99.90;;;;;;4957259;29;20238;-74
2023/02/01 20:46:50;;;;;;;14.10;2.40;;;8.80;99.90;;;;;;4957274;29;20215;-74
2023/02/01 20:49:17;;;;;;;5.13;1.40;;;8.80;99.90;;;;;;4957028;29;20214;-74
2023/02/01 20:51:43;;;;;;;6.23;1.57;;;8.80;99.90;;;;;;4956954;29;20208;-74
2023/02/01 20:54:11;;;;;;;12.83;1.93;;;8.90;99.90;;;;;;4957077;29;20236;-74
2023/02/01 20:56:39;;;;;;;13.40;4.70;;;8.80;99.90;;;;;;4956660;29;20690;-74
2023/02/01 20:59:09;;;;;;;10.13;1.60;;;8.90;99.90;;;;;;4957084;29;20212;-74
2023/02/01 21:01:50;;;;;;;6.63;1.53;;;8.90;99.90;;;;;;4956942;29;20212;-75
2023/02/01 21:04:17;;;;;;;8.17;1.70;;;9.00;99.90;;;;;;4955966;29;20560;-72
2023/02/01 21:06:44;;;;;;;12.87;1.40;;;8.80;99.90;;;;;;4957079;28;20211;-72
2023/02/01 21:09:12;;;;;;;8.23;1.50;;;8.80;99.90;;;;;;4957089;29;20230;-72
2023/02/01 21:11:39;;;;;;;8.57;1.17;;;8.70;99.90;;;;;;4956857;29;20685;-73
2023/02/01 21:14:06;;;;;;;12.77;1.50;;;8.80;99.90;;;;;;4956418;29;20608;-73
2023/02/01 21:16:33;;;;;;;9.63;1.73;;;8.80;99.90;;;;;;4956663;29;20212;-75
2023/02/01 21:18:59;;;;;;;4.43;1.43;;;8.80;99.90;;;;;;4956814;28;20212;-73
2023/02/01 21:21:26;;;;;;;5.33;1.60;;;8.80;99.90;;;;;;4956713;29;20219;-73
2023/02/01 21:23:55;;;;;;;8.27;1.40;;;8.70;99.90;;;;;;4956360;29;20216;-75
2023/02/01 21:26:25;;;;;;;7.03;1.93;;;8.70;99.90;;;;;;4956225;29;20235;-75
2023/02/01 21:28:54;;;;;;;7.60;2.43;;;8.80;99.90;;;;;;4956302;29;20212;-74
2023/02/01 21:31:24;;;;;;;7.50;1.30;;;8.70;99.90;;;;;;4956412;29;20230;-75
2023/02/01 21:33:51;;;;;;;6.97;1.63;;;8.80;99.90;;;;;;4956320;29;20717;-74
2023/02/01 21:36:19;;;;;;;10.93;1.60;;;8.80;99.90;;;;;;4956299;29;20725;-75
2023/02/01 21:38:48;;;;;;;12.63;3.43;;;8.80;99.90;;;;;;4956246;29;20220;-74
2023/02/01 21:44:01;;;;;;;5.03;1.60;;;8.80;99.90;;;;;;4956045;29;20689;-74
2023/02/01 21:46:27;;;;;;;8.70;2.10;;;8.80;99.90;;;;;;4956347;28;20215;-75
2023/02/01 21:48:54;;;;;;;11.37;1.63;;;8.80;99.90;;;;;;4956272;29;20208;-74
2023/02/01 21:51:21;;;;;;;7.30;1.50;;;8.80;99.90;;;;;;4956173;29;20204;-74
2023/02/01 21:53:48;;;;;;;6.87;1.73;;;8.80;99.90;;;;;;4955904;29;20212;-75
2023/02/01 21:56:14;;;;;;;7.63;1.50;;;8.80;99.90;;;;;;4955513;29;20239;-75
2023/02/01 21:58:42;;;;;;;9.50;1.70;;;8.80;99.90;;;;;;4956455;29;20215;-74
2023/02/01 22:01:10;;;;;;;10.97;1.57;;;8.80;99.90;;;;;;4955826;28;20710;-74
2023/02/01 22:03:37;;;;;;;4.60;1.33;;;8.70;99.90;;;;;;4956064;29;20208;-72
2023/02/01 22:06:04;;;;;;;9.77;1.53;;;8.70;99.90;;;;;;4955632;29;20232;-73
2023/02/01 22:08:33;;;;;;;9.40;1.70;;;8.80;99.90;;;;;;4955614;29;20215;-72
2023/02/01 22:11:00;;;;;;;10.20;1.63;;;8.80;99.90;;;;;;4955750;29;20208;-72
2023/02/01 22:13:27;;;;;;;11.53;1.40;;;8.80;99.90;;;;;;4955671;28;20215;-72
2023/02/01 22:15:54;;;;;;;7.30;1.67;;;8.80;99.90;;;;;;4955176;29;20239;-75
2023/02/01 22:18:23;;;;;;;12.23;1.83;;;8.80;99.90;;;;;;4955606;29;20231;-73
2023/02/01 22:20:49;;;;;;;8.20;1.60;;;8.80;99.90;;;;;;4955354;29;20212;-73
2023/02/01 22:23:16;;;;;;;8.13;1.30;;;8.80;99.90;;;;;;4955339;29;20210;-73
2023/02/01 22:25:43;;;;;;;10.40;1.53;;;8.80;99.90;;;;;;4955413;29;20236;-73
2023/02/01 22:28:10;;;;;;;9.30;1.47;;;8.80;99.90;;;;;;4955410;29;20222;-73
2023/02/01 22:30:37;;;;;;;4.70;1.50;;;8.80;99.90;;;;;;4955313;29;20212;-73
2023/02/01 22:33:04;;;;;;;9.97;1.23;;;8.90;99.90;;;;;;4955538;29;20208;-73
